sensor_id;sensor_type;location;lat;lon;timestamp;P1;durP1;ratioP1;P2;durP2;ratioP2
26920;SDS011;14483;47.844;9.660;2024-02-23T00:02:04;0.00;;;0.00;;
26920;SDS011;14483;47.844;9.660;2024-02-23T00:04:30;0.00;;;0.00;;
26920;SDS011;14483;47.844;9.660;2024-02-23T00:06:57;0.00;;;0.00;;
26920;SDS011;14483;47.844;9.660;2024-02-23T00:09:24;0.40;;;0.03;;
26920;SDS011;14483;47.844;9.660;2024-02-23T00:11:52;0.00;;;0.00;;
26920;SDS011;14483;47.844;9.660;2024-02-23T00:14:19;0.00;;;0.00;;
26920;SDS011;14483;47.844;9.660;2024-02-23T00:16:45;0.00;;;0.00;;
26920;SDS011;14483;47.844;9.660;2024-02-23T00:19:12;0.00;;;0.00;;
26920;SDS011;14483;47.844;9.660;2024-02-23T00:21:40;0.00;;;0.00;;
26920;SDS011;14483;47.844;9.660;2024-02-23T00:24:07;0.00;;;0.00;;
26920;SDS011;14483;47.844;9.660;2024-02-23T00:26:35;0.13;;;0.00;;
26920;SDS011;14483;47.844;9.660;2024-02-23T00:29:02;0.15;;;0.00;;
26920;SDS011;14483;47.844;9.660;2024-02-23T00:31:28;0.00;;;0.00;;
26920;SDS011;14483;47.844;9.660;2024-02-23T00:33:54;0.28;;;0.00;;
26920;SDS011;14483;47.844;9.660;2024-02-23T00:36:21;0.00;;;0.00;;
26920;SDS011;14483;47.844;9.660;2024-02-23T00:38:47;0.17;;;0.00;;
26920;SDS011;14483;47.844;9.660;2024-02-23T00:41:14;0.00;;;0.00;;
26920;SDS011;14483;47.844;9.660;2024-02-23T00:43:41;0.00;;;0.00;;
26920;SDS011;14483;47.844;9.660;2024-02-23T00:46:08;0.00;;;0.00;;
26920;SDS011;14483;47.844;9.660;2024-02-23T00:48:34;0.00;;;0.00;;
26920;SDS011;14483;47.844;9.660;2024-02-23T00:51:01;0.00;;;0.00;;
26920;SDS011;14483;47.844;9.660;2024-02-23T00:53:27;0.00;;;0.00;;
26920;SDS011;14483;47.844;9.660;2024-02-23T00:55:54;0.00;;;0.00;;
26920;SDS011;14483;47.844;9.660;2024-02-23T00:58:20;0.00;;;0.00;;
26920;SDS011;14483;47.844;9.660;2024-02-23T01:00:48;0.00;;;0.00;;
26920;SDS011;14483;47.844;9.660;2024-02-23T01:03:14;0.00;;;0.00;;
26920;SDS011;14483;47.844;9.660;2024-02-23T01:05:41;0.40;;;0.00;;
26920;SDS011;14483;47.844;9.660;2024-02-23T01:08:07;1.20;;;0.10;;
26920;SDS011;14483;47.844;9.660;2024-02-23T01:10:34;0.00;;;0.00;;
26920;SDS011;14483;47.844;9.660;2024-02-23T01:13:00;0.00;;;0.00;;
26920;SDS011;14483;47.844;9.660;2024-02-23T01:15:26;0.25;;;0.10;;
26920;SDS011;14483;47.844;9.660;2024-02-23T01:17:54;0.00;;;0.00;;
26920;SDS011;14483;47.844;9.660;2024-02-23T01:20:21;0.30;;;0.00;;
26920;SDS011;14483;47.844;9.660;2024-02-23T01:22:47;0.00;;;0.00;;
26920;SDS011;14483;47.844;9.660;2024-02-23T01:25:14;0.00;;;0.00;;
26920;SDS011;14483;47.844;9.660;2024-02-23T01:27:40;0.03;;;0.00;;
26920;SDS011;14483;47.844;9.660;2024-02-23T01:30:07;1.27;;;0.00;;
26920;SDS011;14483;47.844;9.660;2024-02-23T01:32:34;0.10;;;0.00;;
26920;SDS011;14483;47.844;9.660;2024-02-23T01:35:04;0.00;;;0.00;;
26920;SDS011;14483;47.844;9.660;2024-02-23T01:37:30;0.00;;;0.00;;
26920;SDS011;14483;47.844;9.660;2024-02-23T01:39:57;0.10;;;0.00;;
26920;SDS011;14483;47.844;9.660;2024-02-23T01:42:24;0.08;;;0.00;;
26920;SDS011;14483;47.844;9.660;2024-02-23T01:44:50;0.00;;;0.00;;
26920;SDS011;14483;47.844;9.660;2024-02-23T01:47:17;0.10;;;0.00;;
26920;SDS011;14483;47.844;9.660;2024-02-23T01:49:43;0.15;;;0.00;;
26920;SDS011;14483;47.844;9.660;2024-02-23T01:52:12;0.05;;;0.00;;
26920;SDS011;14483;47.844;9.660;2024-02-23T01:54:39;0.00;;;0.00;;
26920;SDS011;14483;47.844;9.660;2024-02-23T01:57:05;0.00;;;0.00;;
26920;SDS011;14483;47.844;9.660;2024-02-23T01:59:32;0.03;;;0.00;;
26920;SDS011;14483;47.844;9.660;2024-02-23T02:02:02;0.35;;;0.00;;
26920;SDS011;14483;47.844;9.660;2024-02-23T02:04:28;0.03;;;0.00;;
26920;SDS011;14483;47.844;9.660;2024-02-23T02:06:55;0.08;;;0.00;;
26920;SDS011;14483;47.844;9.660;2024-02-23T02:09:22;0.10;;;0.00;;
26920;SDS011;14483;47.844;9.660;2024-02-23T02:11:49;0.00;;;0.00;;
26920;SDS011;14483;47.844;9.660;2024-02-23T02:14:16;1.35;;;0.10;;
26920;SDS011;14483;47.844;9.660;2024-02-23T02:16:42;0.00;;;0.00;;
26920;SDS011;14483;47.844;9.660;2024-02-23T02:19:09;1.13;;;0.00;;
26920;SDS011;14483;47.844;9.660;2024-02-23T02:21:36;0.00;;;0.00;;
26920;SDS011;14483;47.844;9.660;2024-02-23T02:24:02;0.00;;;0.00;;
26920;SDS011;14483;47.844;9.660;2024-02-23T02:26:30;0.00;;;0.00;;
26920;SDS011;14483;47.844;9.660;2024-02-23T02:28:57;0.00;;;0.00;;
26920;SDS011;14483;47.844;9.660;2024-02-23T02:31:23;0.00;;;0.00;;
26920;SDS011;14483;47.844;9.660;2024-02-23T02:33:49;0.00;;;0.00;;
26920;SDS011;14483;47.844;9.660;2024-02-23T02:36:16;0.00;;;0.00;;
26920;SDS011;14483;47.844;9.660;2024-02-23T02:38:42;0.00;;;0.00;;
26920;SDS011;14483;47.844;9.660;2024-02-23T02:41:08;2.88;;;0.20;;
26920;SDS011;14483;47.844;9.660;2024-02-23T02:43:36;0.00;;;0.00;;
26920;SDS011;14483;47.844;9.660;2024-02-23T02:46:03;0.00;;;0.00;;
26920;SDS011;14483;47.844;9.660;2024-02-23T02:48:29;0.00;;;0.00;;
26920;SDS011;14483;47.844;9.660;2024-02-23T02:50:55;0.00;;;0.00;;
26920;SDS011;14483;47.844;9.660;2024-02-23T02:53:22;0.00;;;0.00;;
26920;SDS011;14483;47.844;9.660;2024-02-23T02:55:48;0.08;;;0.08;;
26920;SDS011;14483;47.844;9.660;2024-02-23T02:58:14;0.00;;;0.00;;
26920;SDS011;14483;47.844;9.660;2024-02-23T03:00:42;0.00;;;0.00;;
26920;SDS011;14483;47.844;9.660;2024-02-23T03:03:08;0.30;;;0.00;;
26920;SDS011;14483;47.844;9.660;2024-02-23T03:05:35;0.00;;;0.00;;
26920;SDS011;14483;47.844;9.660;2024-02-23T03:08:01;0.28;;;0.00;;
26920;SDS011;14483;47.844;9.660;2024-02-23T03:10:27;0.82;;;0.00;;
26920;SDS011;14483;47.844;9.660;2024-02-23T03:12:54;0.55;;;0.00;;
26920;SDS011;14483;47.844;9.660;2024-02-23T03:15:20;0.00;;;0.00;;
26920;SDS011;14483;47.844;9.660;2024-02-23T03:17:48;0.00;;;0.00;;
26920;SDS011;14483;47.844;9.660;2024-02-23T03:20:15;0.10;;;0.00;;
26920;SDS011;14483;47.844;9.660;2024-02-23T03:22:41;1.02;;;0.00;;
26920;SDS011;14483;47.844;9.660;2024-02-23T03:25:08;0.00;;;0.00;;
26920;SDS011;14483;47.844;9.660;2024-02-23T03:27:35;0.00;;;0.00;;
26920;SDS011;14483;47.844;9.660;2024-02-23T03:30:02;0.10;;;0.00;;
26920;SDS011;14483;47.844;9.660;2024-02-23T03:32:29;0.55;;;0.00;;
26920;SDS011;14483;47.844;9.660;2024-02-23T03:34:57;0.00;;;0.00;;
26920;SDS011;14483;47.844;9.660;2024-02-23T03:37:25;0.00;;;0.00;;
26920;SDS011;14483;47.844;9.660;2024-02-23T03:39:51;0.00;;;0.00;;
26920;SDS011;14483;47.844;9.660;2024-02-23T03:42:18;0.00;;;0.00;;
26920;SDS011;14483;47.844;9.660;2024-02-23T03:44:44;0.47;;;0.00;;
26920;SDS011;14483;47.844;9.660;2024-02-23T03:47:10;0.80;;;0.00;;
26920;SDS011;14483;47.844;9.660;2024-02-23T03:49:37;0.00;;;0.00;;
26920;SDS011;14483;47.844;9.660;2024-02-23T03:52:05;0.20;;;0.08;;
26920;SDS011;14483;47.844;9.660;2024-02-23T03:54:31;0.20;;;0.00;;
26920;SDS011;14483;47.844;9.660;2024-02-23T03:56:58;0.20;;;0.00;;
26920;SDS011;14483;47.844;9.660;2024-02-23T03:59:24;1.15;;;0.00;;
26920;SDS011;14483;47.844;9.660;2024-02-23T04:01:50;0.00;;;0.00;;
26920;SDS011;14483;47.844;9.660;2024-02-23T04:04:17;3.35;;;0.75;;
26920;SDS011;14483;47.844;9.660;2024-02-23T04:06:43;0.00;;;0.00;;
26920;SDS011;14483;47.844;9.660;2024-02-23T04:09:11;2.38;;;0.00;;
26920;SDS011;14483;47.844;9.660;2024-02-23T04:11:37;0.05;;;0.00;;
26920;SDS011;14483;47.844;9.660;2024-02-23T04:14:04;0.55;;;0.10;;
26920;SDS011;14483;47.844;9.660;2024-02-23T04:16:31;0.05;;;0.00;;
26920;SDS011;14483;47.844;9.660;2024-02-23T04:18:57;0.00;;;0.00;;
26920;SDS011;14483;47.844;9.660;2024-02-23T04:21:24;2.92;;;0.00;;
26920;SDS011;14483;47.844;9.660;2024-02-23T04:23:50;0.88;;;0.10;;
26920;SDS011;14483;47.844;9.660;2024-02-23T04:26:18;0.88;;;0.00;;
26920;SDS011;14483;47.844;9.660;2024-02-23T04:28:44;0.00;;;0.00;;
26920;SDS011;14483;47.844;9.660;2024-02-23T04:31:11;0.38;;;0.05;;
26920;SDS011;14483;47.844;9.660;2024-02-23T04:33:37;0.00;;;0.00;;
26920;SDS011;14483;47.844;9.660;2024-02-23T04:36:04;0.30;;;0.10;;
26920;SDS011;14483;47.844;9.660;2024-02-23T04:38:31;0.60;;;0.00;;
26920;SDS011;14483;47.844;9.660;2024-02-23T04:40:57;0.90;;;0.10;;
26920;SDS011;14483;47.844;9.660;2024-02-23T04:43:25;0.32;;;0.00;;
26920;SDS011;14483;47.844;9.660;2024-02-23T04:45:51;1.17;;;0.10;;
26920;SDS011;14483;47.844;9.660;2024-02-23T04:48:18;0.70;;;0.10;;
26920;SDS011;14483;47.844;9.660;2024-02-23T04:50:44;0.25;;;0.10;;
26920;SDS011;14483;47.844;9.660;2024-02-23T04:53:10;0.75;;;0.10;;
26920;SDS011;14483;47.844;9.660;2024-02-23T04:55:37;1.33;;;0.10;;
26920;SDS011;14483;47.844;9.660;2024-02-23T04:58:03;0.10;;;0.10;;
26920;SDS011;14483;47.844;9.660;2024-02-23T05:00:31;1.60;;;0.10;;
26920;SDS011;14483;47.844;9.660;2024-02-23T05:02:58;3.95;;;0.03;;
26920;SDS011;14483;47.844;9.660;2024-02-23T05:05:28;2.00;;;0.20;;
26920;SDS011;14483;47.844;9.660;2024-02-23T05:07:54;0.85;;;0.20;;
26920;SDS011;14483;47.844;9.660;2024-02-23T05:10:20;2.17;;;0.20;;
26920;SDS011;14483;47.844;9.660;2024-02-23T05:12:47;1.13;;;0.20;;
26920;SDS011;14483;47.844;9.660;2024-02-23T05:15:14;0.30;;;0.10;;
26920;SDS011;14483;47.844;9.660;2024-02-23T05:17:42;1.33;;;0.15;;
26920;SDS011;14483;47.844;9.660;2024-02-23T05:20:08;1.38;;;0.10;;
26920;SDS011;14483;47.844;9.660;2024-02-23T05:22:35;2.17;;;0.22;;
26920;SDS011;14483;47.844;9.660;2024-02-23T05:25:01;1.45;;;0.30;;
26920;SDS011;14483;47.844;9.660;2024-02-23T05:27:28;0.55;;;0.10;;
26920;SDS011;14483;47.844;9.660;2024-02-23T05:29:54;2.83;;;0.35;;
26920;SDS011;14483;47.844;9.660;2024-02-23T05:32:21;1.88;;;0.30;;
26920;SDS011;14483;47.844;9.660;2024-02-23T05:34:49;0.22;;;0.10;;
26920;SDS011;14483;47.844;9.660;2024-02-23T05:37:17;1.35;;;0.20;;
26920;SDS011;14483;47.844;9.660;2024-02-23T05:39:44;0.10;;;0.00;;
26920;SDS011;14483;47.844;9.660;2024-02-23T05:42:11;0.60;;;0.00;;
26920;SDS011;14483;47.844;9.660;2024-02-23T05:44:37;0.55;;;0.00;;
26920;SDS011;14483;47.844;9.660;2024-02-23T05:47:04;0.52;;;0.03;;
26920;SDS011;14483;47.844;9.660;2024-02-23T05:49:31;3.95;;;0.28;;
26920;SDS011;14483;47.844;9.660;2024-02-23T05:51:58;5.95;;;0.20;;
26920;SDS011;14483;47.844;9.660;2024-02-23T05:54:25;1.35;;;0.28;;
26920;SDS011;14483;47.844;9.660;2024-02-23T05:56:51;1.15;;;0.20;;
26920;SDS011;14483;47.844;9.660;2024-02-23T05:59:17;0.50;;;0.10;;
26920;SDS011;14483;47.844;9.660;2024-02-23T06:01:44;0.10;;;0.05;;
26920;SDS011;14483;47.844;9.660;2024-02-23T06:04:10;0.22;;;0.08;;
26920;SDS011;14483;47.844;9.660;2024-02-23T06:06:36;0.00;;;0.00;;
26920;SDS011;14483;47.844;9.660;2024-02-23T06:09:04;0.90;;;0.20;;
26920;SDS011;14483;47.844;9.660;2024-02-23T06:11:31;1.85;;;0.20;;
26920;SDS011;14483;47.844;9.660;2024-02-23T06:13:57;0.85;;;0.30;;
26920;SDS011;14483;47.844;9.660;2024-02-23T06:16:23;0.98;;;0.43;;
26920;SDS011;14483;47.844;9.660;2024-02-23T06:18:50;1.30;;;0.10;;
26920;SDS011;14483;47.844;9.660;2024-02-23T06:21:16;0.80;;;0.17;;
26920;SDS011;14483;47.844;9.660;2024-02-23T06:23:43;1.98;;;0.40;;
26920;SDS011;14483;47.844;9.660;2024-02-23T06:26:11;0.20;;;0.05;;
26920;SDS011;14483;47.844;9.660;2024-02-23T06:28:38;1.10;;;0.28;;
26920;SDS011;14483;47.844;9.660;2024-02-23T06:31:06;0.50;;;0.30;;
26920;SDS011;14483;47.844;9.660;2024-02-23T06:33:33;1.85;;;0.20;;
26920;SDS011;14483;47.844;9.660;2024-02-23T06:35:59;0.63;;;0.17;;
26920;SDS011;14483;47.844;9.660;2024-02-23T06:38:26;0.90;;;0.20;;
26920;SDS011;14483;47.844;9.660;2024-02-23T06:40:53;2.35;;;1.17;;
26920;SDS011;14483;47.844;9.660;2024-02-23T06:43:21;0.35;;;0.13;;
26920;SDS011;14483;47.844;9.660;2024-02-23T06:45:48;0.17;;;0.10;;
26920;SDS011;14483;47.844;9.660;2024-02-23T06:48:14;2.20;;;0.30;;
26920;SDS011;14483;47.844;9.660;2024-02-23T06:50:41;0.55;;;0.20;;
26920;SDS011;14483;47.844;9.660;2024-02-23T06:53:07;0.38;;;0.13;;
26920;SDS011;14483;47.844;9.660;2024-02-23T06:55:34;3.05;;;0.30;;
26920;SDS011;14483;47.844;9.660;2024-02-23T06:58:00;0.43;;;0.15;;
26920;SDS011;14483;47.844;9.660;2024-02-23T07:00:28;1.85;;;0.30;;
26920;SDS011;14483;47.844;9.660;2024-02-23T07:02:54;0.57;;;0.10;;
26920;SDS011;14483;47.844;9.660;2024-02-23T07:05:23;0.55;;;0.20;;
26920;SDS011;14483;47.844;9.660;2024-02-23T07:07:50;1.02;;;0.10;;
26920;SDS011;14483;47.844;9.660;2024-02-23T07:10:16;2.38;;;0.20;;
26920;SDS011;14483;47.844;9.660;2024-02-23T07:12:43;2.85;;;0.20;;
26920;SDS011;14483;47.844;9.660;2024-02-23T07:15:09;1.83;;;0.10;;
26920;SDS011;14483;47.844;9.660;2024-02-23T07:17:37;0.47;;;0.10;;
26920;SDS011;14483;47.844;9.660;2024-02-23T07:20:04;2.25;;;0.30;;
26920;SDS011;14483;47.844;9.660;2024-02-23T07:22:31;1.13;;;0.40;;
26920;SDS011;14483;47.844;9.660;2024-02-23T07:24:57;2.50;;;0.30;;
26920;SDS011;14483;47.844;9.660;2024-02-23T07:27:23;3.58;;;0.70;;
26920;SDS011;14483;47.844;9.660;2024-02-23T07:29:50;0.68;;;0.30;;
26920;SDS011;14483;47.844;9.660;2024-02-23T07:32:16;0.65;;;0.20;;
26920;SDS011;14483;47.844;9.660;2024-02-23T07:34:44;0.60;;;0.20;;
26920;SDS011;14483;47.844;9.660;2024-02-23T07:37:10;1.20;;;0.30;;
26920;SDS011;14483;47.844;9.660;2024-02-23T07:39:36;1.63;;;0.20;;
26920;SDS011;14483;47.844;9.660;2024-02-23T07:42:03;0.75;;;0.20;;
26920;SDS011;14483;47.844;9.660;2024-02-23T07:44:31;0.80;;;0.22;;
26920;SDS011;14483;47.844;9.660;2024-02-23T07:46:57;0.93;;;0.22;;
26920;SDS011;14483;47.844;9.660;2024-02-23T07:49:24;0.38;;;0.20;;
26920;SDS011;14483;47.844;9.660;2024-02-23T07:51:53;0.22;;;0.10;;
26920;SDS011;14483;47.844;9.660;2024-02-23T07:54:20;2.05;;;0.20;;
26920;SDS011;14483;47.844;9.660;2024-02-23T07:56:46;0.77;;;0.20;;
26920;SDS011;14483;47.844;9.660;2024-02-23T07:59:12;1.17;;;0.35;;
26920;SDS011;14483;47.844;9.660;2024-02-23T08:01:39;1.05;;;0.20;;
26920;SDS011;14483;47.844;9.660;2024-02-23T08:04:06;0.77;;;0.28;;
26920;SDS011;14483;47.844;9.660;2024-02-23T08:06:32;1.05;;;0.55;;
26920;SDS011;14483;47.844;9.660;2024-02-23T08:09:00;2.15;;;0.52;;
26920;SDS011;14483;47.844;9.660;2024-02-23T08:11:27;2.97;;;0.45;;
26920;SDS011;14483;47.844;9.660;2024-02-23T08:13:54;4.55;;;0.43;;
26920;SDS011;14483;47.844;9.660;2024-02-23T08:16:20;3.13;;;0.65;;
26920;SDS011;14483;47.844;9.660;2024-02-23T08:18:46;1.25;;;0.65;;
26920;SDS011;14483;47.844;9.660;2024-02-23T08:21:13;5.22;;;0.73;;
26920;SDS011;14483;47.844;9.660;2024-02-23T08:23:39;2.15;;;0.40;;
26920;SDS011;14483;47.844;9.660;2024-02-23T08:26:07;2.65;;;0.30;;
26920;SDS011;14483;47.844;9.660;2024-02-23T08:28:35;2.90;;;0.45;;
26920;SDS011;14483;47.844;9.660;2024-02-23T08:31:01;1.05;;;0.30;;
26920;SDS011;14483;47.844;9.660;2024-02-23T08:33:27;1.58;;;0.10;;
26920;SDS011;14483;47.844;9.660;2024-02-23T08:35:54;3.28;;;0.30;;
26920;SDS011;14483;47.844;9.660;2024-02-23T08:38:20;0.93;;;0.10;;
26920;SDS011;14483;47.844;9.660;2024-02-23T08:40:47;1.75;;;0.20;;
26920;SDS011;14483;47.844;9.660;2024-02-23T08:43:14;1.05;;;0.30;;
26920;SDS011;14483;47.844;9.660;2024-02-23T08:45:41;1.30;;;0.47;;
26920;SDS011;14483;47.844;9.660;2024-02-23T08:48:07;1.00;;;0.30;;
26920;SDS011;14483;47.844;9.660;2024-02-23T08:50:33;1.85;;;0.20;;
26920;SDS011;14483;47.844;9.660;2024-02-23T08:53:00;2.10;;;0.35;;
26920;SDS011;14483;47.844;9.660;2024-02-23T08:55:26;1.75;;;0.30;;
26920;SDS011;14483;47.844;9.660;2024-02-23T08:57:53;1.27;;;0.10;;
26920;SDS011;14483;47.844;9.660;2024-02-23T09:00:21;1.65;;;0.17;;
26920;SDS011;14483;47.844;9.660;2024-02-23T09:02:49;2.08;;;0.52;;
26920;SDS011;14483;47.844;9.660;2024-02-23T09:05:15;2.85;;;0.30;;
26920;SDS011;14483;47.844;9.660;2024-02-23T09:07:42;0.10;;;0.10;;
26920;SDS011;14483;47.844;9.660;2024-02-23T09:10:08;0.77;;;0.20;;
26920;SDS011;14483;47.844;9.660;2024-02-23T09:12:35;1.02;;;0.30;;
26920;SDS011;14483;47.844;9.660;2024-02-23T09:15:01;1.00;;;0.30;;
26920;SDS011;14483;47.844;9.660;2024-02-23T09:17:29;1.17;;;0.40;;
26920;SDS011;14483;47.844;9.660;2024-02-23T09:19:55;5.35;;;0.60;;
26920;SDS011;14483;47.844;9.660;2024-02-23T09:22:22;1.80;;;0.30;;
26920;SDS011;14483;47.844;9.660;2024-02-23T09:24:48;0.60;;;0.30;;
26920;SDS011;14483;47.844;9.660;2024-02-23T09:27:15;1.77;;;0.63;;
26920;SDS011;14483;47.844;9.660;2024-02-23T09:29:41;1.30;;;0.38;;
26920;SDS011;14483;47.844;9.660;2024-02-23T09:32:08;2.33;;;0.60;;
26920;SDS011;14483;47.844;9.660;2024-02-23T09:34:35;5.80;;;0.45;;
26920;SDS011;14483;47.844;9.660;2024-02-23T09:37:02;2.65;;;0.40;;
26920;SDS011;14483;47.844;9.660;2024-02-23T09:39:28;3.05;;;0.40;;
26920;SDS011;14483;47.844;9.660;2024-02-23T09:41:56;3.30;;;0.55;;
26920;SDS011;14483;47.844;9.660;2024-02-23T09:44:22;2.72;;;0.40;;
26920;SDS011;14483;47.844;9.660;2024-02-23T09:46:49;2.83;;;0.52;;
26920;SDS011;14483;47.844;9.660;2024-02-23T09:49:16;2.95;;;0.50;;
26920;SDS011;14483;47.844;9.660;2024-02-23T09:51:43;1.35;;;0.60;;
26920;SDS011;14483;47.844;9.660;2024-02-23T09:54:10;0.88;;;0.20;;
26920;SDS011;14483;47.844;9.660;2024-02-23T09:56:36;0.68;;;0.35;;
26920;SDS011;14483;47.844;9.660;2024-02-23T09:59:04;1.75;;;0.40;;
26920;SDS011;14483;47.844;9.660;2024-02-23T10:01:31;1.00;;;0.40;;
26920;SDS011;14483;47.844;9.660;2024-02-23T10:03:58;3.05;;;0.40;;
26920;SDS011;14483;47.844;9.660;2024-02-23T10:06:25;2.03;;;0.50;;
26920;SDS011;14483;47.844;9.660;2024-02-23T10:08:53;3.80;;;0.63;;
26920;SDS011;14483;47.844;9.660;2024-02-23T10:11:19;0.70;;;0.30;;
26920;SDS011;14483;47.844;9.660;2024-02-23T10:13:47;1.45;;;0.45;;
26920;SDS011;14483;47.844;9.660;2024-02-23T10:16:14;1.35;;;0.55;;
26920;SDS011;14483;47.844;9.660;2024-02-23T10:18:40;1.77;;;0.28;;
26920;SDS011;14483;47.844;9.660;2024-02-23T10:21:07;1.15;;;0.52;;
26920;SDS011;14483;47.844;9.660;2024-02-23T10:23:33;2.20;;;0.57;;
26920;SDS011;14483;47.844;9.660;2024-02-23T10:26:01;3.25;;;0.55;;
26920;SDS011;14483;47.844;9.660;2024-02-23T10:28:30;4.10;;;0.40;;
26920;SDS011;14483;47.844;9.660;2024-02-23T10:30:56;0.73;;;0.30;;
26920;SDS011;14483;47.844;9.660;2024-02-23T10:33:23;1.55;;;0.52;;
26920;SDS011;14483;47.844;9.660;2024-02-23T10:35:50;2.67;;;0.50;;
26920;SDS011;14483;47.844;9.660;2024-02-23T10:38:20;1.08;;;0.35;;
26920;SDS011;14483;47.844;9.660;2024-02-23T10:40:46;0.90;;;0.40;;
26920;SDS011;14483;47.844;9.660;2024-02-23T10:43:16;2.05;;;0.43;;
26920;SDS011;14483;47.844;9.660;2024-02-23T10:45:43;1.42;;;0.50;;
26920;SDS011;14483;47.844;9.660;2024-02-23T10:48:10;1.30;;;0.52;;
26920;SDS011;14483;47.844;9.660;2024-02-23T10:50:39;3.53;;;0.43;;
26920;SDS011;14483;47.844;9.660;2024-02-23T10:53:09;1.65;;;0.35;;
26920;SDS011;14483;47.844;9.660;2024-02-23T10:55:36;3.03;;;0.80;;
26920;SDS011;14483;47.844;9.660;2024-02-23T10:58:03;0.70;;;0.40;;
26920;SDS011;14483;47.844;9.660;2024-02-23T11:00:34;1.25;;;0.55;;
26920;SDS011;14483;47.844;9.660;2024-02-23T11:03:00;5.07;;;0.50;;
26920;SDS011;14483;47.844;9.660;2024-02-23T11:05:28;2.28;;;0.50;;
26920;SDS011;14483;47.844;9.660;2024-02-23T11:07:55;6.55;;;0.90;;
26920;SDS011;14483;47.844;9.660;2024-02-23T11:10:22;2.00;;;0.50;;
26920;SDS011;14483;47.844;9.660;2024-02-23T11:12:56;1.23;;;0.50;;
26920;SDS011;14483;47.844;9.660;2024-02-23T11:15:26;0.85;;;0.38;;
26920;SDS011;14483;47.844;9.660;2024-02-23T11:17:54;2.33;;;0.60;;
26920;SDS011;14483;47.844;9.660;2024-02-23T11:20:21;2.17;;;0.50;;
26920;SDS011;14483;47.844;9.660;2024-02-23T11:22:51;2.10;;;0.40;;
26920;SDS011;14483;47.844;9.660;2024-02-23T11:25:17;2.95;;;0.47;;
26920;SDS011;14483;47.844;9.660;2024-02-23T11:27:45;0.70;;;0.32;;
26920;SDS011;14483;47.844;9.660;2024-02-23T11:30:16;2.15;;;0.40;;
26920;SDS011;14483;47.844;9.660;2024-02-23T11:32:43;4.22;;;1.05;;
26920;SDS011;14483;47.844;9.660;2024-02-23T11:35:13;1.08;;;0.52;;
26920;SDS011;14483;47.844;9.660;2024-02-23T11:37:46;2.97;;;0.80;;
26920;SDS011;14483;47.844;9.660;2024-02-23T11:42:39;3.42;;;0.60;;
26920;SDS011;14483;47.844;9.660;2024-02-23T11:45:06;1.88;;;0.40;;
26920;SDS011;14483;47.844;9.660;2024-02-23T11:47:32;1.95;;;0.20;;
26920;SDS011;14483;47.844;9.660;2024-02-23T11:49:59;2.08;;;0.38;;
26920;SDS011;14483;47.844;9.660;2024-02-23T11:52:27;3.75;;;0.35;;
26920;SDS011;14483;47.844;9.660;2024-02-23T11:54:53;1.48;;;0.17;;
26920;SDS011;14483;47.844;9.660;2024-02-23T11:57:21;7.68;;;0.30;;
26920;SDS011;14483;47.844;9.660;2024-02-23T11:59:50;4.97;;;0.30;;
26920;SDS011;14483;47.844;9.660;2024-02-23T12:02:17;0.52;;;0.15;;
26920;SDS011;14483;47.844;9.660;2024-02-23T12:04:43;2.05;;;0.25;;
26920;SDS011;14483;47.844;9.660;2024-02-23T12:07:10;1.02;;;0.20;;
26920;SDS011;14483;47.844;9.660;2024-02-23T12:09:37;4.30;;;0.30;;
26920;SDS011;14483;47.844;9.660;2024-02-23T12:12:06;1.17;;;0.50;;
26920;SDS011;14483;47.844;9.660;2024-02-23T12:14:34;0.95;;;0.20;;
26920;SDS011;14483;47.844;9.660;2024-02-23T12:17:01;0.90;;;0.50;;
26920;SDS011;14483;47.844;9.660;2024-02-23T12:19:29;2.55;;;0.40;;
26920;SDS011;14483;47.844;9.660;2024-02-23T12:21:59;1.30;;;0.20;;
26920;SDS011;14483;47.844;9.660;2024-02-23T12:24:25;3.65;;;0.65;;
26920;SDS011;14483;47.844;9.660;2024-02-23T12:26:54;2.50;;;0.40;;
26920;SDS011;14483;47.844;9.660;2024-02-23T12:29:21;1.05;;;0.10;;
26920;SDS011;14483;47.844;9.660;2024-02-23T12:31:47;3.00;;;0.25;;
26920;SDS011;14483;47.844;9.660;2024-02-23T12:34:14;1.33;;;0.20;;
26920;SDS011;14483;47.844;9.660;2024-02-23T12:36:40;1.27;;;0.20;;
26920;SDS011;14483;47.844;9.660;2024-02-23T12:39:07;2.08;;;0.20;;
26920;SDS011;14483;47.844;9.660;2024-02-23T12:41:33;1.30;;;0.30;;
26920;SDS011;14483;47.844;9.660;2024-02-23T12:44:01;2.88;;;0.30;;
26920;SDS011;14483;47.844;9.660;2024-02-23T12:46:27;1.90;;;0.17;;
26920;SDS011;14483;47.844;9.660;2024-02-23T12:48:54;1.42;;;0.38;;
26920;SDS011;14483;47.844;9.660;2024-02-23T12:51:24;2.03;;;0.25;;
26920;SDS011;14483;47.844;9.660;2024-02-23T12:53:51;2.22;;;0.28;;
26920;SDS011;14483;47.844;9.660;2024-02-23T12:56:17;1.27;;;0.15;;
26920;SDS011;14483;47.844;9.660;2024-02-23T12:58:45;1.42;;;0.40;;
26920;SDS011;14483;47.844;9.660;2024-02-23T13:01:12;3.97;;;0.40;;
26920;SDS011;14483;47.844;9.660;2024-02-23T13:03:39;2.63;;;0.40;;
26920;SDS011;14483;47.844;9.660;2024-02-23T13:06:06;2.35;;;0.20;;
26920;SDS011;14483;47.844;9.660;2024-02-23T13:08:33;0.82;;;0.30;;
26920;SDS011;14483;47.844;9.660;2024-02-23T13:11:00;1.77;;;0.38;;
26920;SDS011;14483;47.844;9.660;2024-02-23T13:13:27;1.65;;;0.20;;
26920;SDS011;14483;47.844;9.660;2024-02-23T13:15:54;1.75;;;0.45;;
26920;SDS011;14483;47.844;9.660;2024-02-23T13:18:23;5.70;;;0.30;;
26920;SDS011;14483;47.844;9.660;2024-02-23T13:20:49;3.53;;;0.50;;
26920;SDS011;14483;47.844;9.660;2024-02-23T13:23:16;3.67;;;0.40;;
26920;SDS011;14483;47.844;9.660;2024-02-23T13:25:42;1.48;;;0.52;;
26920;SDS011;14483;47.844;9.660;2024-02-23T13:28:09;2.10;;;0.28;;
26920;SDS011;14483;47.844;9.660;2024-02-23T13:30:35;0.90;;;0.20;;
26920;SDS011;14483;47.844;9.660;2024-02-23T13:33:02;0.63;;;0.10;;
26920;SDS011;14483;47.844;9.660;2024-02-23T13:35:31;0.20;;;0.10;;
26920;SDS011;14483;47.844;9.660;2024-02-23T13:37:57;2.28;;;0.30;;
26920;SDS011;14483;47.844;9.660;2024-02-23T13:40:24;3.38;;;0.50;;
26920;SDS011;14483;47.844;9.660;2024-02-23T13:42:50;1.17;;;0.20;;
26920;SDS011;14483;47.844;9.660;2024-02-23T13:45:18;3.53;;;0.40;;
26920;SDS011;14483;47.844;9.660;2024-02-23T13:47:56;1.15;;;0.25;;
26920;SDS011;14483;47.844;9.660;2024-02-23T13:50:23;3.17;;;0.52;;
26920;SDS011;14483;47.844;9.660;2024-02-23T13:52:51;2.42;;;0.40;;
26920;SDS011;14483;47.844;9.660;2024-02-23T13:55:17;3.00;;;0.40;;
26920;SDS011;14483;47.844;9.660;2024-02-23T13:57:45;2.00;;;0.60;;
26920;SDS011;14483;47.844;9.660;2024-02-23T14:00:12;1.05;;;0.35;;
26920;SDS011;14483;47.844;9.660;2024-02-23T14:02:38;1.25;;;0.25;;
26920;SDS011;14483;47.844;9.660;2024-02-23T14:05:06;2.45;;;0.40;;
26920;SDS011;14483;47.844;9.660;2024-02-23T14:07:33;8.70;;;0.60;;
26920;SDS011;14483;47.844;9.660;2024-02-23T14:10:00;6.45;;;0.40;;
26920;SDS011;14483;47.844;9.660;2024-02-23T14:12:27;2.55;;;0.20;;
26920;SDS011;14483;47.844;9.660;2024-02-23T14:14:54;3.80;;;0.30;;
26920;SDS011;14483;47.844;9.660;2024-02-23T14:17:20;0.73;;;0.13;;
26920;SDS011;14483;47.844;9.660;2024-02-23T14:19:46;2.05;;;0.22;;
26920;SDS011;14483;47.844;9.660;2024-02-23T14:22:13;0.60;;;0.22;;
26920;SDS011;14483;47.844;9.660;2024-02-23T14:24:39;2.63;;;0.40;;
26920;SDS011;14483;47.844;9.660;2024-02-23T14:27:07;1.38;;;0.40;;
26920;SDS011;14483;47.844;9.660;2024-02-23T14:29:33;2.72;;;0.20;;
26920;SDS011;14483;47.844;9.660;2024-02-23T14:32:00;1.48;;;0.25;;
26920;SDS011;14483;47.844;9.660;2024-02-23T14:34:26;2.47;;;0.20;;
26920;SDS011;14483;47.844;9.660;2024-02-23T14:36:54;0.70;;;0.28;;
26920;SDS011;14483;47.844;9.660;2024-02-23T14:39:20;1.25;;;0.47;;
26920;SDS011;14483;47.844;9.660;2024-02-23T14:41:47;1.25;;;0.20;;
26920;SDS011;14483;47.844;9.660;2024-02-23T14:44:14;5.10;;;0.35;;
26920;SDS011;14483;47.844;9.660;2024-02-23T14:46:41;2.80;;;0.40;;
26920;SDS011;14483;47.844;9.660;2024-02-23T14:49:07;1.35;;;0.30;;